Time;durP1;ratioP1;P1;durP2;ratioP2;P2;SDS_P1;SDS_P2;PMS_P1;PMS_P2;Temp;Humidity;BMP_temperature;BMP_pressure;BME280_temperature;BME280_humidity;BME280_pressure;Samples;Min_cycle;Max_cycle;Signal;HPM_P1;HPM_P2
2024/04/23 00:00:15;;;;;;;10.90;9.63;;;8.00;99.90;;;;;;5414168;26;19996;-60
2024/04/23 00:02:41;;;;;;;11.40;9.33;;;8.10;99.90;;;;;;5414370;26;20069;-59
2024/04/23 00:05:06;;;;;;;12.57;9.93;;;8.00;99.90;;;;;;5414448;26;20012;-60
2024/04/23 00:10:54;;;;;;;11.73;9.40;;;8.20;99.90;;;;;;5389181;26;20073;-60
2024/04/23 00:13:20;;;;;;;11.07;8.87;;;7.90;99.90;;;;;;5408241;26;20007;-59
2024/04/23 00:15:45;;;;;;;9.93;8.60;;;8.10;99.90;;;;;;5418095;26;20014;-59
2024/04/23 00:18:11;;;;;;;11.07;9.13;;;8.10;99.90;;;;;;5417801;26;20326;-59
2024/04/23 00:20:37;;;;;;;10.33;8.83;;;7.90;99.90;;;;;;5417908;26;20318;-59
2024/04/23 00:23:02;;;;;;;10.57;8.80;;;8.00;99.90;;;;;;5405869;26;20011;-59
2024/04/23 00:25:28;;;;;;;9.70;7.77;;;8.10;99.90;;;;;;5404703;26;20000;-59
2024/04/23 00:27:53;;;;;;;9.77;7.97;;;7.90;99.90;;;;;;5417424;26;20014;-59
2024/04/23 00:30:19;;;;;;;9.70;8.20;;;8.00;99.90;;;;;;5417574;26;20003;-59
2024/04/23 00:32:45;;;;;;;12.57;9.73;;;8.00;99.90;;;;;;5415821;26;20073;-60
2024/04/23 00:35:11;;;;;;;10.67;8.63;;;8.00;99.90;;;;;;5415785;26;19999;-59
2024/04/23 00:37:36;;;;;;;10.40;8.60;;;7.90;99.90;;;;;;5415631;26;20003;-59
2024/04/23 00:40:02;;;;;;;10.90;8.93;;;8.00;99.90;;;;;;5417667;26;20501;-59
2024/04/23 00:42:28;;;;;;;10.23;8.63;;;7.90;99.90;;;;;;5415375;26;20065;-59
2024/04/23 00:44:55;;;;;;;10.60;8.17;;;8.00;99.90;;;;;;5417494;26;20014;-59
2024/04/23 00:51:33;;;;;;;13.23;9.33;;;7.70;99.90;;;;;;5398672;26;20070;-59
2024/04/23 00:53:59;;;;;;;12.53;10.20;;;7.80;99.90;;;;;;5407928;26;20039;-60
2024/04/23 00:56:25;;;;;;;12.63;10.60;;;7.90;99.90;;;;;;5417470;26;20003;-59
2024/04/23 00:58:52;;;;;;;17.60;12.73;;;7.90;99.90;;;;;;5417627;26;20011;-59
2024/04/23 01:01:18;;;;;;;16.70;11.47;;;8.00;99.90;;;;;;5417200;26;20100;-59
2024/04/23 01:03:43;;;;;;;14.43;11.10;;;8.00;99.90;;;;;;5416863;26;19999;-59
2024/04/23 01:06:09;;;;;;;13.20;10.20;;;8.00;99.90;;;;;;5405448;26;20390;-59
2024/04/23 01:08:35;;;;;;;14.30;10.63;;;7.90;99.90;;;;;;5417048;26;20003;-59
2024/04/23 01:11:02;;;;;;;11.37;9.33;;;7.90;99.90;;;;;;5416849;26;20500;-59
2024/04/23 01:13:28;;;;;;;14.63;11.47;;;8.00;99.90;;;;;;5416926;26;20464;-59
2024/04/23 01:15:54;;;;;;;12.63;9.67;;;7.90;99.90;;;;;;5392030;26;20345;-59
2024/04/23 01:18:21;;;;;;;13.00;10.00;;;7.90;99.90;;;;;;5416100;26;20013;-59
2024/04/23 01:20:50;;;;;;;13.27;9.83;;;8.00;99.90;;;;;;5415755;26;20000;-59
2024/04/23 01:23:24;;;;;;;10.63;8.80;;;7.90;99.90;;;;;;5413834;26;20011;-58
2024/04/23 01:25:53;;;;;;;9.93;8.13;;;7.70;99.90;;;;;;5416009;26;20014;-59
2024/04/23 01:28:19;;;;;;;10.00;8.07;;;7.50;99.90;;;;;;5415805;26;20331;-59
2024/04/23 01:30:44;;;;;;;17.93;13.83;;;7.70;99.90;;;;;;5415322;26;20091;-58
2024/04/23 01:33:12;;;;;;;14.40;11.70;;;7.80;99.90;;;;;;5402496;26;20073;-59
2024/04/23 01:35:37;;;;;;;13.67;11.00;;;7.80;99.90;;;;;;5384051;26;20011;-58
2024/04/23 01:38:04;;;;;;;12.27;10.00;;;7.80;99.90;;;;;;5414500;26;20011;-58
2024/04/23 01:40:30;;;;;;;11.67;9.53;;;7.80;99.90;;;;;;5415456;26;20072;-58
2024/04/23 01:42:57;;;;;;;10.33;8.60;;;7.90;99.90;;;;;;5402400;26;20023;-59
2024/04/23 01:45:24;;;;;;;10.37;9.20;;;7.80;99.90;;;;;;5416800;26;19999;-58
2024/04/23 01:47:53;;;;;;;10.87;8.93;;;7.90;99.90;;;;;;5414626;26;20003;-57
2024/04/23 01:50:40;;;;;;;12.17;9.57;;;7.90;99.90;;;;;;5416618;26;20014;-58
2024/04/23 01:53:12;;;;;;;11.20;9.37;;;8.00;99.90;;;;;;5397278;26;20015;-58
2024/04/23 01:55:37;;;;;;;10.80;9.07;;;8.00;99.90;;;;;;5414798;26;20014;-58
2024/04/23 01:58:03;;;;;;;11.23;9.77;;;8.00;99.90;;;;;;5402809;26;20338;-59
2024/04/23 02:10:41;;;;;;;14.90;11.87;;;7.80;99.90;;;;;;5406127;26;20010;-58
2024/04/23 02:13:07;;;;;;;12.97;10.33;;;7.90;99.90;;;;;;5408804;26;20077;-58
2024/04/23 02:15:33;;;;;;;18.27;13.10;;;7.80;99.90;;;;;;5416125;26;20008;-59
2024/04/23 02:18:00;;;;;;;16.23;12.60;;;7.80;99.90;;;;;;5410610;26;20012;-59
2024/04/23 02:20:34;;;;;;;15.23;12.27;;;7.90;99.90;;;;;;5397012;26;20016;-58
2024/04/23 02:23:00;;;;;;;14.90;12.35;;;7.80;99.90;;;;;;5414974;26;20016;-58
2024/04/23 02:25:25;;;;;;;14.10;11.73;;;8.00;99.90;;;;;;5412885;26;20011;-57
2024/04/23 02:27:51;;;;;;;15.13;12.23;;;8.00;99.90;;;;;;5408675;26;20464;-58
2024/04/23 02:30:17;;;;;;;13.33;10.50;;;7.90;99.90;;;;;;5415860;26;20511;-57
2024/04/23 02:32:43;;;;;;;14.10;11.33;;;7.90;99.90;;;;;;5415621;26;20024;-56
2024/04/23 02:35:08;;;;;;;14.33;11.20;;;7.70;99.90;;;;;;5415871;26;19996;-57
2024/04/23 02:37:34;;;;;;;12.63;10.27;;;7.80;99.90;;;;;;5405777;26;20008;-57
2024/04/23 02:40:00;;;;;;;15.50;11.50;;;7.70;99.90;;;;;;5409271;26;20031;-58
2024/04/23 02:42:26;;;;;;;14.77;11.83;;;7.90;99.90;;;;;;5415290;26;20414;-56
2024/04/23 02:44:51;;;;;;;17.00;12.33;;;7.90;99.90;;;;;;5415392;26;20014;-56
2024/04/23 02:47:17;;;;;;;14.10;11.53;;;8.00;99.90;;;;;;5415542;26;20336;-58
2024/04/23 02:49:43;;;;;;;14.77;11.07;;;;;;;;;;5415909;26;20069;-57
2024/04/23 02:52:10;;;;;;;14.93;11.00;;;;;;;;;;5415463;26;20019;-57
2024/04/23 02:54:35;;;;;;;17.63;11.87;;;7.90;99.90;;;;;;5413649;26;20007;-58
2024/04/23 02:57:01;;;;;;;13.47;11.37;;;7.90;99.90;;;;;;5415583;26;20506;-55
2024/04/23 02:59:35;;;;;;;16.30;11.90;;;8.00;99.90;;;;;;5413871;26;20006;-57
2024/04/23 03:02:05;;;;;;;15.15;12.45;;;7.90;99.90;;;;;;5415274;26;19999;-56
2024/04/23 03:04:34;;;;;;;13.57;10.50;;;8.00;99.90;;;;;;5415080;26;20013;-56
2024/04/23 03:07:02;;;;;;;19.60;12.20;;;7.90;99.90;;;;;;5415702;26;20323;-57
2024/04/23 03:09:28;;;;;;;15.50;11.93;;;7.80;99.90;;;;;;5386987;26;20003;-57
2024/04/23 03:11:55;;;;;;;12.97;10.40;;;7.80;99.90;;;;;;5415362;26;20003;-56
2024/04/23 03:14:20;;;;;;;12.30;11.00;;;7.90;99.90;;;;;;5415236;26;20003;-56
2024/04/23 03:16:46;;;;;;;12.77;10.37;;;7.90;99.90;;;;;;5397298;26;20080;-56
2024/04/23 03:19:12;;;;;;;13.07;10.70;;;7.80;99.90;;;;;;5402552;26;20032;-56
2024/04/23 03:22:11;;;;;;;11.03;9.33;;;7.80;99.90;;;;;;5394066;26;20004;-56
2024/04/23 03:24:38;;;;;;;13.00;10.57;;;7.80;99.90;;;;;;5410352;26;20007;-56
2024/04/23 03:27:03;;;;;;;13.00;10.07;;;7.90;99.90;;;;;;5406160;26;20000;-59
2024/04/23 03:29:29;;;;;;;13.50;10.47;;;7.90;99.90;;;;;;5401469;26;20414;-56
2024/04/23 03:32:04;;;;;;;12.63;10.13;;;7.90;99.90;;;;;;5412411;26;20003;-56
2024/04/23 03:34:31;;;;;;;16.33;11.57;;;7.90;99.90;;;;;;5410220;26;20466;-57
2024/04/23 03:36:57;;;;;;;17.07;11.23;;;7.90;99.90;;;;;;5411787;26;20011;-56
2024/04/23 03:39:23;;;;;;;13.50;10.97;;;7.90;99.90;;;;;;5410837;26;20327;-57
2024/04/23 03:41:56;;;;;;;12.50;10.23;;;8.00;99.90;;;;;;5398984;26;20084;-57
2024/04/23 03:44:22;;;;;;;13.00;10.00;;;7.90;99.90;;;;;;5406274;26;20031;-56
2024/04/23 03:46:47;;;;;;;12.00;9.70;;;7.90;99.90;;;;;;5389855;26;20014;-55
2024/04/23 03:49:13;;;;;;;13.70;10.63;;;7.90;99.90;;;;;;5409435;26;20003;-56
2024/04/23 03:51:38;;;;;;;13.07;10.33;;;7.80;99.90;;;;;;5414816;26;20021;-54
2024/04/23 03:54:04;;;;;;;12.07;10.23;;;8.00;99.90;;;;;;5410581;26;20465;-56
2024/04/23 03:56:29;;;;;;;13.57;10.60;;;8.00;99.90;;;;;;5414294;26;20003;-56
2024/04/23 03:58:55;;;;;;;12.83;9.87;;;7.80;99.90;;;;;;5414682;26;20011;-56
2024/04/23 04:01:21;;;;;;;15.93;10.53;;;7.90;99.90;;;;;;5412733;26;20017;-56
2024/04/23 04:06:39;;;;;;;14.20;10.63;;;8.00;99.90;;;;;;5408998;26;20135;-57
2024/04/23 04:09:05;;;;;;;11.97;9.87;;;8.10;99.90;;;;;;5414270;26;20045;-57
2024/04/23 04:11:32;;;;;;;12.93;9.70;;;8.10;99.90;;;;;;5412512;26;20011;-56
2024/04/23 04:14:01;;;;;;;12.57;10.33;;;8.00;99.90;;;;;;5413822;26;20014;-54
2024/04/23 04:16:28;;;;;;;11.43;9.00;;;8.10;99.90;;;;;;5413939;26;20083;-56
2024/04/23 04:18:54;;;;;;;13.43;10.43;;;8.00;99.90;;;;;;5397464;26;20004;-53
2024/04/23 04:21:20;;;;;;;12.67;9.80;;;8.00;99.90;;;;;;5413962;26;20003;-54
2024/04/23 04:23:46;;;;;;;14.60;10.57;;;8.00;99.90;;;;;;5413684;26;20008;-56
2024/04/23 04:26:13;;;;;;;13.20;9.47;;;8.00;99.90;;;;;;5413756;26;20015;-55
2024/04/23 04:28:42;;;;;;;10.70;8.83;;;7.90;99.90;;;;;;5406090;26;20003;-56
2024/04/23 04:31:12;;;;;;;9.63;8.33;;;7.90;99.90;;;;;;5401835;26;20000;-56
2024/04/23 04:33:38;;;;;;;11.83;8.97;;;7.70;99.90;;;;;;5410635;26;20064;-55
2024/04/23 04:36:04;;;;;;;10.43;8.73;;;7.90;99.90;;;;;;5398691;26;20004;-55
2024/04/23 04:38:30;;;;;;;9.83;8.23;;;7.90;99.90;;;;;;5413749;26;20014;-56
2024/04/23 04:40:56;;;;;;;10.50;8.70;;;7.90;99.90;;;;;;5408844;26;19996;-54
2024/04/23 04:43:21;;;;;;;9.23;7.97;;;7.90;99.90;;;;;;5413662;26;20018;-56
2024/04/23 04:45:47;;;;;;;10.73;8.60;;;7.80;99.90;;;;;;5413856;26;19999;-56
2024/04/23 04:48:13;;;;;;;10.30;8.30;;;7.80;99.90;;;;;;5411969;26;20088;-53
2024/04/23 04:50:38;;;;;;;10.40;8.80;;;7.80;99.90;;;;;;5413489;26;20035;-56
2024/04/23 04:53:04;;;;;;;9.93;8.33;;;7.90;99.90;;;;;;5413850;26;20007;-56
2024/04/23 04:55:30;;;;;;;9.27;7.93;;;7.90;99.90;;;;;;5413505;26;20442;-54
2024/04/23 04:57:56;;;;;;;8.73;7.20;;;7.80;99.90;;;;;;5401889;26;20023;-56
2024/04/23 05:00:25;;;;;;;10.53;7.70;;;8.00;99.90;;;;;;5415849;26;20003;-57
2024/04/23 05:02:50;;;;;;;7.63;6.60;;;7.70;99.90;;;;;;5404484;26;20028;-53
2024/04/23 05:15:22;;;;;;;11.60;8.73;;;8.00;99.90;;;;;;5394036;26;20073;-56
2024/04/23 05:17:48;;;;;;;13.80;10.10;;;8.10;99.90;;;;;;5411602;26;20035;-55
2024/04/23 05:20:13;;;;;;;14.47;10.93;;;8.10;99.90;;;;;;5410107;26;20006;-56
2024/04/23 05:22:39;;;;;;;13.43;9.27;;;8.20;99.90;;;;;;5408531;26;19996;-55
2024/04/23 05:25:05;;;;;;;13.93;10.50;;;8.20;99.90;;;;;;5402765;26;20000;-55
2024/04/23 05:27:31;;;;;;;14.07;10.17;;;8.10;99.90;;;;;;5412771;26;20000;-55
2024/04/23 05:29:57;;;;;;;14.27;11.20;;;8.20;99.90;;;;;;5416795;26;20007;-56
2024/04/23 05:35:14;;;;;;;;;;;8.20;99.90;;;;;;5411263;26;20091;-54
2024/04/23 05:37:42;;;;;;;14.30;10.93;;;8.20;99.90;;;;;;5414413;26;19957;-53
2024/04/23 05:40:08;;;;;;;15.47;11.50;;;8.30;99.90;;;;;;5414151;26;20080;-52
2024/04/23 05:42:34;;;;;;;15.97;12.07;;;8.40;99.90;;;;;;5410413;26;20005;-55
2024/04/23 05:45:00;;;;;;;13.73;10.43;;;8.30;99.90;;;;;;5416627;26;20003;-52
2024/04/23 05:47:25;;;;;;;14.47;11.07;;;8.20;99.90;;;;;;5415858;26;20069;-52
2024/04/23 05:50:29;;;;;;;14.03;11.63;;;8.10;99.90;;;;;;5414083;26;20028;-54
2024/04/23 05:53:32;;;;;;;16.70;11.70;;;8.00;99.90;;;;;;5406712;26;20000;-53
2024/04/23 05:55:57;;;;;;;14.50;10.83;;;8.10;99.90;;;;;;5390545;26;20036;-52
2024/04/23 05:58:23;;;;;;;20.17;13.67;;;8.10;99.90;;;;;;5407835;26;20000;-56
2024/04/23 06:00:49;;;;;;;16.40;12.03;;;8.20;99.90;;;;;;5413466;26;20014;-53
2024/04/23 06:03:14;;;;;;;19.17;13.90;;;8.20;99.90;;;;;;5399688;26;20337;-52
2024/04/23 06:05:57;;;;;;;17.63;13.00;;;8.20;99.90;;;;;;5415731;26;20000;-51
2024/04/23 06:08:25;;;;;;;20.13;14.40;;;8.20;99.90;;;;;;5415570;26;20012;-51
2024/04/23 06:14:58;;;;;;;19.13;13.20;;;8.20;99.90;;;;;;5389734;26;22285;-52
2024/04/23 06:17:28;;;;;;;19.87;14.33;;;8.20;99.90;;;;;;5406499;26;20004;-53
2024/04/23 06:19:54;;;;;;;21.53;14.20;;;8.30;99.90;;;;;;5415327;26;20068;-53
2024/04/23 06:22:21;;;;;;;18.87;14.43;;;8.30;99.90;;;;;;5407934;26;20004;-56
2024/04/23 06:24:50;;;;;;;19.30;14.03;;;8.40;99.90;;;;;;5415258;26;20073;-53
2024/04/23 06:27:36;;;;;;;20.07;15.20;;;;;;;;;;5415290;26;20442;-49
2024/04/23 06:30:09;;;;;;;17.90;14.13;;;;;;;;;;5410935;26;20076;-53
2024/04/23 06:32:36;;;;;;;19.80;14.77;;;8.50;99.90;;;;;;5408787;26;20010;-51
2024/04/23 06:35:02;;;;;;;18.43;14.27;;;8.60;99.90;;;;;;5415002;26;20006;-54
2024/04/23 06:37:29;;;;;;;19.43;14.93;;;8.50;99.90;;;;;;5400962;26;19996;-53
2024/04/23 06:39:57;;;;;;;18.80;14.27;;;8.50;99.90;;;;;;5401191;26;20345;-54
2024/04/23 06:42:23;;;;;;;20.50;15.77;;;8.20;99.90;;;;;;5412586;26;20006;-54
2024/04/23 06:44:49;;;;;;;19.53;14.73;;;8.50;99.90;;;;;;5413530;26;20000;-51
2024/04/23 06:47:14;;;;;;;17.93;14.33;;;8.60;99.90;;;;;;5398305;26;20011;-60
2024/04/23 06:49:43;;;;;;;18.37;13.97;;;8.50;99.90;;;;;;5415083;26;20011;-60
2024/04/23 06:52:10;;;;;;;22.33;16.13;;;8.60;99.90;;;;;;5395594;26;19995;-60
2024/04/23 06:54:35;;;;;;;21.00;15.87;;;8.70;99.90;;;;;;5415346;26;20023;-60
2024/04/23 06:57:01;;;;;;;22.07;16.00;;;8.60;99.90;;;;;;5415151;26;20003;-60
2024/04/23 06:59:27;;;;;;;19.47;15.43;;;8.60;99.90;;;;;;5415031;26;20486;-59
2024/04/23 07:01:52;;;;;;;22.90;16.63;;;8.70;99.90;;;;;;5415324;26;20072;-60
2024/04/23 07:05:11;;;;;;;24.30;16.83;;;8.80;99.90;;;;;;5415176;26;20461;-60
2024/04/23 07:07:37;;;;;;;22.03;16.17;;;8.70;99.90;;;;;;5413560;26;20121;-60
2024/04/23 07:10:02;;;;;;;25.47;16.43;;;8.80;99.90;;;;;;5415273;26;20451;-60
2024/04/23 07:12:28;;;;;;;22.27;17.00;;;8.80;99.90;;;;;;5415147;26;20354;-60
2024/04/23 07:14:53;;;;;;;21.60;16.13;;;8.80;99.90;;;;;;5415051;26;20077;-60
2024/04/23 07:17:19;;;;;;;25.47;17.53;;;8.60;99.90;;;;;;5415112;26;20000;-60
2024/04/23 07:19:45;;;;;;;23.80;18.38;;;8.80;99.90;;;;;;5404185;26;20015;-61
2024/04/23 07:22:10;;;;;;;25.43;17.20;;;8.90;99.90;;;;;;5401476;26;20014;-60
2024/04/23 07:24:36;;;;;;;25.00;18.33;;;8.80;99.90;;;;;;5413105;26;20003;-60
2024/04/23 07:27:01;;;;;;;23.33;18.60;;;8.90;99.90;;;;;;5415138;26;20452;-60
2024/04/23 07:29:27;;;;;;;25.33;18.80;;;9.00;99.90;;;;;;5415038;26;20000;-60
2024/04/23 07:31:54;;;;;;;25.73;18.63;;;9.00;99.90;;;;;;5414985;26;20015;-60
2024/04/23 07:34:20;;;;;;;27.03;18.93;;;9.00;99.90;;;;;;5414843;26;20013;-61
2024/04/23 07:36:49;;;;;;;25.43;17.93;;;9.00;99.90;;;;;;5412883;26;20004;-60
2024/04/23 07:39:14;;;;;;;25.93;19.10;;;9.00;99.90;;;;;;5413090;26;20008;-60
2024/04/23 07:41:41;;;;;;;26.07;19.27;;;9.10;99.90;;;;;;5383412;26;20010;-60
2024/04/23 07:44:06;;;;;;;25.97;17.63;;;9.10;99.90;;;;;;5414541;26;20004;-61
2024/04/23 07:46:32;;;;;;;23.50;17.57;;;9.10;99.90;;;;;;5400271;26;20003;-61
2024/04/23 07:48:57;;;;;;;26.20;19.10;;;9.10;99.90;;;;;;5415014;26;20468;-60
2024/04/23 07:51:23;;;;;;;22.43;15.90;;;9.20;99.90;;;;;;5414875;26;20019;-60
2024/04/23 07:53:48;;;;;;;20.77;16.80;;;9.10;99.90;;;;;;5414329;26;20466;-61
2024/04/23 07:56:16;;;;;;;20.90;15.50;;;9.00;99.90;;;;;;5414409;26;20018;-60
2024/04/23 07:58:42;;;;;;;21.97;17.30;;;9.10;99.90;;;;;;5414548;26;20003;-60
2024/04/23 08:01:07;;;;;;;18.67;15.05;;;9.10;99.90;;;;;;5414801;26;20297;-61
2024/04/23 08:03:34;;;;;;;21.63;16.00;;;9.10;99.90;;;;;;5412507;26;20018;-60
2024/04/23 08:06:02;;;;;;;21.57;16.27;;;9.00;99.90;;;;;;5412358;26;20003;-60
2024/04/23 08:08:30;;;;;;;21.80;16.20;;;9.00;99.90;;;;;;5414345;26;20004;-61
2024/04/23 08:10:56;;;;;;;24.70;17.40;;;9.00;99.90;;;;;;5414366;26;20004;-60
2024/04/23 08:13:22;;;;;;;16.93;14.10;;;9.10;99.90;;;;;;5412237;26;20012;-61
2024/04/23 08:15:47;;;;;;;15.83;12.63;;;9.20;99.90;;;;;;5383033;26;20015;-61
2024/04/23 08:18:13;;;;;;;16.60;13.20;;;9.30;99.90;;;;;;5414148;26;20013;-61
2024/04/23 08:20:38;;;;;;;18.67;13.60;;;9.30;99.90;;;;;;5414033;26;20080;-60
2024/04/23 08:23:04;;;;;;;15.67;11.97;;;9.60;99.90;;;;;;5413866;26;20080;-60
2024/04/23 08:25:30;;;;;;;18.17;13.30;;;9.60;99.90;;;;;;5414133;26;20003;-61
2024/04/23 08:27:55;;;;;;;17.57;14.23;;;9.60;99.90;;;;;;5412134;26;20012;-61
2024/04/23 08:30:21;;;;;;;17.47;13.20;;;9.80;99.90;;;;;;5412311;26;20014;-61
2024/04/23 08:33:15;;;;;;;16.13;11.27;;;9.90;99.90;;;;;;5387256;26;20045;-61
2024/04/23 08:35:41;;;;;;;12.25;9.57;;;9.70;99.90;;;;;;5402504;26;20145;-60
2024/04/23 08:38:07;;;;;;;12.68;10.07;;;9.90;99.90;;;;;;5417368;26;20380;-61
2024/04/23 08:40:34;;;;;;;10.43;8.63;;;9.80;99.90;;;;;;5412783;26;20068;-61
2024/04/23 08:43:07;;;;;;;9.63;8.23;;;10.10;99.90;;;;;;5416800;26;20461;-61
2024/04/23 08:45:35;;;;;;;8.52;7.32;;;10.10;99.90;;;;;;5415497;26;21165;-61
2024/04/23 08:48:03;;;;;;;10.35;7.43;;;10.20;99.90;;;;;;5415066;26;20003;-60
2024/04/23 08:50:30;;;;;;;9.85;6.72;;;10.30;99.90;;;;;;5417324;26;20010;-61
2024/04/23 08:52:56;;;;;;;7.63;6.63;;;10.20;99.90;;;;;;5415602;26;20323;-60
2024/04/23 08:55:23;;;;;;;8.20;6.72;;;10.10;99.90;;;;;;5417196;26;20004;-61
2024/04/23 08:57:49;;;;;;;9.07;6.70;;;10.20;99.90;;;;;;5417343;26;20000;-61
2024/04/23 09:00:15;;;;;;;12.55;8.80;;;10.20;99.90;;;;;;5404489;26;20419;-61
2024/04/23 09:02:42;;;;;;;11.77;8.00;;;10.00;99.90;;;;;;5408235;26;20095;-60
2024/04/23 09:05:08;;;;;;;10.85;9.40;;;10.20;99.90;;;;;;5412113;26;20126;-60
2024/04/23 09:07:36;;;;;;;12.05;9.88;;;10.40;99.90;;;;;;5408509;26;20436;-60
2024/04/23 09:10:06;;;;;;;11.82;9.15;;;10.30;99.90;;;;;;5414244;26;19999;-61
2024/04/23 09:12:31;;;;;;;12.35;9.85;;;10.30;99.90;;;;;;5409505;26;19996;-60
2024/04/23 09:14:58;;;;;;;11.68;8.93;;;10.40;99.90;;;;;;5416573;26;20030;-61
2024/04/23 09:17:24;;;;;;;10.73;8.13;;;10.50;99.90;;;;;;5416653;26;20011;-60
2024/04/23 09:19:50;;;;;;;9.07;8.02;;;10.60;99.90;;;;;;5415166;26;20007;-60
2024/04/23 09:22:17;;;;;;;10.35;8.38;;;10.70;99.90;;;;;;5416746;26;20010;-60
2024/04/23 09:25:03;;;;;;;9.82;6.72;;;10.90;99.90;;;;;;5416638;26;19999;-60
2024/04/23 09:27:31;;;;;;;9.32;6.70;;;10.90;99.90;;;;;;5417125;26;20032;-60
2024/04/23 09:29:57;;;;;;;6.88;6.03;;;10.90;99.90;;;;;;5416772;26;20003;-61
2024/04/23 09:32:23;;;;;;;7.28;6.03;;;10.80;99.90;;;;;;5416541;26;20022;-60
2024/04/23 09:35:06;;;;;;;7.57;5.03;;;10.70;99.90;;;;;;5416573;26;20019;-60
2024/04/23 09:37:32;;;;;;;6.75;5.30;;;10.70;99.90;;;;;;5414953;26;20003;-60
2024/04/23 09:40:04;;;;;;;6.32;5.18;;;10.70;99.90;;;;;;5397626;26;20019;-61
2024/04/23 09:42:31;;;;;;;7.15;5.72;;;10.90;14.70;;;;;;5410256;26;20003;-60
2024/04/23 09:44:56;;;;;;;7.18;5.43;;;10.90;1.00;;;;;;5412322;26;20004;-61
2024/04/23 09:47:25;;;;;;;8.35;5.97;;;11.30;1.00;;;;;;5409774;26;20000;-61
2024/04/23 09:49:57;;;;;;;6.60;5.38;;;11.10;1.00;;;;;;5390960;26;20546;-61
2024/04/23 09:52:32;;;;;;;6.88;5.65;;;11.10;1.00;;;;;;5416577;26;20448;-61
2024/04/23 09:54:58;;;;;;;7.10;5.57;;;11.20;1.00;;;;;;5416284;26;20003;-60
2024/04/23 09:57:23;;;;;;;6.43;4.68;;;11.20;1.00;;;;;;5416336;26;20003;-61
2024/04/23 09:59:49;;;;;;;5.68;3.92;;;11.30;1.00;;;;;;5414605;26;20020;-61
2024/04/23 10:02:24;;;;;;;4.47;3.25;;;11.30;1.00;;;;;;5393037;26;20003;-61
2024/04/23 10:05:13;;;;;;;5.82;3.58;;;11.20;1.00;;;;;;5416158;26;20007;-61
2024/04/23 10:11:05;;;;;;;2.95;2.47;;;11.30;1.00;;;;;;5389224;26;20011;-61
2024/04/23 10:13:35;;;;;;;2.58;1.75;;;11.30;1.00;;;;;;5416178;26;20014;-61
2024/04/23 10:16:10;;;;;;;2.97;2.40;;;11.40;1.00;;;;;;5416148;26;20360;-61
2024/04/23 10:18:47;;;;;;;1.80;1.60;;;11.30;1.00;;;;;;5414062;26;20007;-61
2024/04/23 10:21:16;;;;;;;2.15;1.00;;;11.50;1.00;;;;;;5400111;26;20036;-61
2024/04/23 10:23:42;;;;;;;0.55;0.55;;;11.40;1.00;;;;;;5414713;26;20007;-61
2024/04/23 10:26:10;;;;;;;0.82;0.80;;;11.40;99.90;;;;;;5415821;26;20418;-61
2024/04/23 10:28:36;;;;;;;1.17;0.70;;;11.50;1.00;;;;;;5414128;26;19999;-61
2024/04/23 10:31:02;;;;;;;0.80;0.60;;;11.50;1.00;;;;;;5415967;26;19999;-61
2024/04/23 10:36:54;;;;;;;0.73;0.73;;;11.80;99.90;;;;;;5401038;26;20086;-61
2024/04/23 10:39:22;;;;;;;1.60;0.80;;;;;;;;;;5414043;26;20441;-61
2024/04/23 10:41:48;;;;;;;2.33;1.00;;;;;;;;;;5412123;26;20409;-61
2024/04/23 10:44:16;;;;;;;1.15;1.00;;;;;;;;;;5403978;26;20008;-61
2024/04/23 10:46:43;;;;;;;1.27;0.82;;;12.10;1.00;;;;;;5403183;26;20000;-61
2024/04/23 10:49:15;;;;;;;0.80;0.80;;;12.30;1.00;;;;;;5390569;26;20039;-61
2024/04/23 10:51:50;;;;;;;0.75;0.75;;;12.40;1.00;;;;;;5394705;26;20000;-61
2024/04/23 10:54:22;;;;;;;0.52;0.50;;;12.40;1.00;;;;;;5414512;26;20479;-61
2024/04/23 10:57:07;;;;;;;0.47;0.47;;;12.40;99.90;;;;;;5414992;26;20011;-60
2024/04/23 10:59:36;;;;;;;0.70;0.60;;;12.40;99.90;;;;;;5416141;26;20035;-61
2024/04/23 11:02:05;;;;;;;2.17;0.50;;;12.50;1.00;;;;;;5413886;26;20364;-61
2024/04/23 11:04:42;;;;;;;0.52;0.50;;;;;;;;;;5415566;26;20000;-61
2024/04/23 11:07:09;;;;;;;0.63;0.63;;;;;;;;;;5415282;26;20031;-61
2024/04/23 11:09:36;;;;;;;2.97;0.50;;;;;;;;;;5415317;26;20489;-61
2024/04/23 11:12:03;;;;;;;0.68;0.40;;;;;;;;;;5415600;26;20460;-61
2024/04/23 11:14:31;;;;;;;0.40;0.40;;;;;;;;;;5388543;26;20425;-61
2024/04/23 11:17:01;;;;;;;0.50;0.38;;;12.60;99.90;;;;;;5415111;26;20084;-61
2024/04/23 11:19:47;;;;;;;1.63;0.70;;;13.10;99.90;;;;;;5415288;26;20011;-60
2024/04/23 11:22:15;;;;;;;1.17;0.55;;;13.40;99.90;;;;;;5392848;26;20027;-61
2024/04/23 11:24:41;;;;;;;1.77;0.60;;;13.40;99.90;;;;;;5415040;26;20467;-61
2024/04/23 11:27:08;;;;;;;0.40;0.40;;;13.60;99.90;;;;;;5415291;26;20027;-61
2024/04/23 11:29:37;;;;;;;0.75;0.32;;;;;;;;;;5415333;26;20076;-61
2024/04/23 11:32:03;;;;;;;1.02;0.32;;;13.80;1.00;;;;;;5414994;26;20000;-61
2024/04/23 11:34:30;;;;;;;0.65;0.52;;;13.80;99.90;;;;;;5415151;26;20465;-61
2024/04/23 11:36:55;;;;;;;1.10;0.30;;;14.10;99.90;;;;;;5414908;26;20585;-61
2024/04/23 11:39:27;;;;;;;0.55;0.43;;;;;;;;;;5414883;26;20015;-61
2024/04/23 11:41:56;;;;;;;0.90;0.70;;;;;;;;;;5415069;26;20011;-61
2024/04/23 11:44:22;;;;;;;0.47;0.40;;;;;;;;;;5414569;26;20011;-61
2024/04/23 11:46:49;;;;;;;1.45;0.60;;;;;;;;;;5414846;26;20004;-61
2024/04/23 11:49:18;;;;;;;0.80;0.32;;;;;;;;;;5414577;26;20342;-61
2024/04/23 11:51:46;;;;;;;0.82;0.80;;;;;;;;;;5414582;26;20126;-61
2024/04/23 11:54:12;;;;;;;1.75;0.30;;;;;;;;;;5414708;26;19999;-61
2024/04/23 11:56:38;;;;;;;0.60;0.35;;;;;;;;;;5414245;26;20003;-61
2024/04/23 11:59:05;;;;;;;0.40;0.30;;;;;;;;;;5414251;26;19999;-61
2024/04/23 12:01:31;;;;;;;0.60;0.50;;;;;;;;;;5414520;26;20003;-61
2024/04/23 12:03:57;;;;;;;0.85;0.38;;;;;;;;;;5414339;26;20028;-61
2024/04/23 12:06:24;;;;;;;0.70;0.38;;;;;;;;;;5406015;26;20371;-61
2024/04/23 12:08:50;;;;;;;0.25;0.25;;;;;;;;;;5391820;26;20015;-61
2024/04/23 12:11:16;;;;;;;0.40;0.32;;;;;;;;;;5416307;26;20014;-61
2024/04/23 12:13:48;;;;;;;1.70;0.60;;;13.80;99.90;;;;;;5418172;26;19999;-62
2024/04/23 12:16:16;;;;;;;0.40;0.40;;;13.80;99.90;;;;;;5415986;26;20024;-62
2024/04/23 12:18:42;;;;;;;2.03;0.55;;;13.70;99.90;;;;;;5399307;26;20015;-62
2024/04/23 12:21:10;;;;;;;1.60;0.57;;;13.70;99.90;;;;;;5411291;26;20561;-61
2024/04/23 12:23:36;;;;;;;1.98;0.50;;;13.70;99.90;;;;;;5417533;26;20015;-61
2024/04/23 12:26:02;;;;;;;1.83;0.68;;;13.70;99.90;;;;;;5417702;26;20003;-62
2024/04/23 12:28:28;;;;;;;1.75;0.80;;;;;;;;;;5417492;26;20355;-61
2024/04/23 12:30:55;;;;;;;2.05;0.80;;;;;;;;;;5417866;26;20016;-61
2024/04/23 12:33:21;;;;;;;2.17;1.15;;;;;;;;;;5417806;26;20011;-61
2024/04/23 12:35:48;;;;;;;1.58;0.60;;;;;;;;;;5417637;26;20019;-61
2024/04/23 12:38:14;;;;;;;1.52;0.90;;;;;;;;;;5390400;26;19999;-60
2024/04/23 12:40:40;;;;;;;1.88;1.00;;;;;;;;;;5392474;26;20417;-61
2024/04/23 12:43:10;;;;;;;1.52;1.15;;;13.50;99.90;;;;;;5397938;26;19996;-61
2024/04/23 12:45:36;;;;;;;3.28;1.10;;;13.50;99.90;;;;;;5400735;26;20018;-61
2024/04/23 12:51:24;;;;;;;3.08;1.30;;;13.50;99.90;;;;;;5384559;26;20073;-61
2024/04/23 12:53:49;;;;;;;2.10;1.50;;;13.40;99.90;;;;;;5393500;26;20068;-60
2024/04/23 12:56:15;;;;;;;1.92;1.63;;;13.30;99.90;;;;;;5417702;26;20399;-60
2024/04/23 12:58:40;;;;;;;2.17;1.48;;;13.20;99.90;;;;;;5417472;26;20047;-60
2024/04/23 13:01:07;;;;;;;1.77;1.65;;;13.30;99.90;;;;;;5417648;26;20072;-60
2024/04/23 13:03:33;;;;;;;5.72;2.33;;;13.30;99.90;;;;;;5392111;26;20000;-60
2024/04/23 13:05:59;;;;;;;4.13;2.20;;;13.30;99.90;;;;;;5404023;26;20015;-60
2024/04/23 13:08:24;;;;;;;3.40;2.53;;;13.20;99.90;;;;;;5403697;26;20010;-60
2024/04/23 13:10:50;;;;;;;2.65;2.13;;;13.20;99.90;;;;;;5417341;26;20015;-60
2024/04/23 13:13:15;;;;;;;4.40;2.97;;;13.00;99.90;;;;;;5416946;26;20004;-60
2024/04/23 13:15:41;;;;;;;5.18;2.97;;;12.90;99.90;;;;;;5416941;26;20076;-60
2024/04/23 13:18:08;;;;;;;4.68;3.22;;;12.90;99.90;;;;;;5417137;26;20076;-60
2024/04/23 13:20:35;;;;;;;6.30;2.85;;;12.80;99.90;;;;;;5416811;26;20035;-60
2024/04/23 13:23:04;;;;;;;2.42;1.88;;;12.60;99.90;;;;;;5415228;26;20447;-60
2024/04/23 13:25:31;;;;;;;5.97;2.78;;;12.50;99.90;;;;;;5415277;26;20027;-59
2024/04/23 13:27:57;;;;;;;3.97;2.33;;;12.40;99.90;;;;;;5417128;26;20353;-59
2024/04/23 13:30:23;;;;;;;3.53;2.30;;;12.30;99.90;;;;;;5415070;26;20125;-59
2024/04/23 13:32:48;;;;;;;4.70;1.75;;;12.40;99.90;;;;;;5415218;26;20018;-59
2024/04/23 13:35:17;;;;;;;2.55;1.70;;;12.30;99.90;;;;;;5391521;26;20019;-59
2024/04/23 13:37:43;;;;;;;2.35;1.65;;;12.20;99.90;;;;;;5416920;26;20003;-59
2024/04/23 13:40:09;;;;;;;3.60;1.80;;;12.10;99.90;;;;;;5416569;26;20000;-60
2024/04/23 13:42:36;;;;;;;3.25;2.20;;;12.20;99.90;;;;;;5414671;26;20033;-60